sensor_id;sensor_type;location;lat;lon;timestamp;P1;durP1;ratioP1;P2;durP2;ratioP2
48002;SDS011;33768;48.578;11.574;2023-06-22T00:02:02;13.73;;;6.53;;
48002;SDS011;33768;48.578;11.574;2023-06-22T00:05:06;9.40;;;6.37;;
48002;SDS011;33768;48.578;11.574;2023-06-22T00:08:11;10.27;;;6.40;;
48002;SDS011;33768;48.578;11.574;2023-06-22T00:11:15;7.70;;;6.20;;
48002;SDS011;33768;48.578;11.574;2023-06-22T00:14:19;10.27;;;6.07;;
48002;SDS011;33768;48.578;11.574;2023-06-22T00:17:23;9.83;;;6.10;;
48002;SDS011;33768;48.578;11.574;2023-06-22T00:20:27;15.67;;;7.07;;
48002;SDS011;33768;48.578;11.574;2023-06-22T00:23:34;11.13;;;6.57;;
48002;SDS011;33768;48.578;11.574;2023-06-22T00:26:38;8.80;;;6.20;;
48002;SDS011;33768;48.578;11.574;2023-06-22T00:29:46;13.97;;;6.47;;
48002;SDS011;33768;48.578;11.574;2023-06-22T00:32:50;11.70;;;6.37;;
48002;SDS011;33768;48.578;11.574;2023-06-22T00:35:54;9.50;;;5.73;;
48002;SDS011;33768;48.578;11.574;2023-06-22T00:38:58;10.03;;;5.47;;
48002;SDS011;33768;48.578;11.574;2023-06-22T00:42:03;8.67;;;5.37;;
48002;SDS011;33768;48.578;11.574;2023-06-22T00:45:08;11.47;;;5.60;;
48002;SDS011;33768;48.578;11.574;2023-06-22T00:48:13;10.33;;;5.57;;
48002;SDS011;33768;48.578;11.574;2023-06-22T00:51:18;8.60;;;5.70;;
48002;SDS011;33768;48.578;11.574;2023-06-22T00:54:27;9.77;;;5.10;;
48002;SDS011;33768;48.578;11.574;2023-06-22T00:57:32;9.90;;;5.40;;
48002;SDS011;33768;48.578;11.574;2023-06-22T01:00:37;10.73;;;5.50;;
48002;SDS011;33768;48.578;11.574;2023-06-22T01:03:41;9.87;;;4.90;;
48002;SDS011;33768;48.578;11.574;2023-06-22T01:06:47;6.20;;;4.70;;
48002;SDS011;33768;48.578;11.574;2023-06-22T01:16:34;7.03;;;4.77;;
48002;SDS011;33768;48.578;11.574;2023-06-22T01:29:27;8.47;;;6.00;;
48002;SDS011;33768;48.578;11.574;2023-06-22T01:32:34;8.90;;;5.10;;
48002;SDS011;33768;48.578;11.574;2023-06-22T01:35:39;7.47;;;5.17;;
48002;SDS011;33768;48.578;11.574;2023-06-22T01:38:44;6.97;;;5.27;;
48002;SDS011;33768;48.578;11.574;2023-06-22T01:41:50;8.27;;;5.67;;
48002;SDS011;33768;48.578;11.574;2023-06-22T01:44:55;8.63;;;5.57;;
48002;SDS011;33768;48.578;11.574;2023-06-22T01:48:00;10.20;;;5.10;;
48002;SDS011;33768;48.578;11.574;2023-06-22T01:51:05;7.03;;;5.03;;
48002;SDS011;33768;48.578;11.574;2023-06-22T01:54:10;9.13;;;4.70;;
48002;SDS011;33768;48.578;11.574;2023-06-22T01:57:14;9.23;;;5.00;;
48002;SDS011;33768;48.578;11.574;2023-06-22T02:00:20;9.40;;;4.40;;
48002;SDS011;33768;48.578;11.574;2023-06-22T02:03:31;10.70;;;4.67;;
48002;SDS011;33768;48.578;11.574;2023-06-22T02:06:42;12.53;;;5.63;;
48002;SDS011;33768;48.578;11.574;2023-06-22T02:09:50;10.43;;;4.63;;
48002;SDS011;33768;48.578;11.574;2023-06-22T02:12:56;10.17;;;5.30;;
48002;SDS011;33768;48.578;11.574;2023-06-22T02:16:03;8.37;;;5.07;;
48002;SDS011;33768;48.578;11.574;2023-06-22T02:19:07;6.63;;;4.43;;
48002;SDS011;33768;48.578;11.574;2023-06-22T02:22:11;8.83;;;5.07;;
48002;SDS011;33768;48.578;11.574;2023-06-22T02:25:18;11.97;;;5.70;;
48002;SDS011;33768;48.578;11.574;2023-06-22T02:28:23;9.00;;;5.20;;
48002;SDS011;33768;48.578;11.574;2023-06-22T02:31:27;9.50;;;4.93;;
48002;SDS011;33768;48.578;11.574;2023-06-22T02:34:34;8.50;;;5.60;;
48002;SDS011;33768;48.578;11.574;2023-06-22T02:37:40;10.27;;;5.23;;
48002;SDS011;33768;48.578;11.574;2023-06-22T02:40:45;6.83;;;5.37;;
48002;SDS011;33768;48.578;11.574;2023-06-22T02:43:50;11.03;;;6.10;;
48002;SDS011;33768;48.578;11.574;2023-06-22T02:46:57;9.13;;;5.63;;
48002;SDS011;33768;48.578;11.574;2023-06-22T02:50:01;11.07;;;6.30;;
48002;SDS011;33768;48.578;11.574;2023-06-22T02:53:08;11.27;;;5.27;;
48002;SDS011;33768;48.578;11.574;2023-06-22T02:56:15;7.27;;;5.47;;
48002;SDS011;33768;48.578;11.574;2023-06-22T02:59:20;9.70;;;5.93;;
48002;SDS011;33768;48.578;11.574;2023-06-22T03:02:28;12.03;;;6.17;;
48002;SDS011;33768;48.578;11.574;2023-06-22T03:05:33;9.27;;;6.43;;
48002;SDS011;33768;48.578;11.574;2023-06-22T03:08:38;9.57;;;5.50;;
48002;SDS011;33768;48.578;11.574;2023-06-22T03:11:43;9.07;;;5.17;;
48002;SDS011;33768;48.578;11.574;2023-06-22T03:14:47;8.63;;;5.33;;
48002;SDS011;33768;48.578;11.574;2023-06-22T03:17:52;8.47;;;5.60;;
48002;SDS011;33768;48.578;11.574;2023-06-22T03:20:56;10.00;;;5.13;;
48002;SDS011;33768;48.578;11.574;2023-06-22T03:24:01;6.33;;;4.63;;
48002;SDS011;33768;48.578;11.574;2023-06-22T03:27:06;8.73;;;5.50;;
48002;SDS011;33768;48.578;11.574;2023-06-22T03:30:11;8.27;;;5.03;;
48002;SDS011;33768;48.578;11.574;2023-06-22T03:33:16;9.47;;;5.57;;
48002;SDS011;33768;48.578;11.574;2023-06-22T03:36:21;9.57;;;5.70;;
48002;SDS011;33768;48.578;11.574;2023-06-22T03:39:26;9.10;;;5.23;;
48002;SDS011;33768;48.578;11.574;2023-06-22T03:42:30;8.80;;;4.97;;
48002;SDS011;33768;48.578;11.574;2023-06-22T03:45:34;10.07;;;5.77;;
48002;SDS011;33768;48.578;11.574;2023-06-22T03:48:39;10.37;;;5.40;;
48002;SDS011;33768;48.578;11.574;2023-06-22T03:51:42;8.17;;;6.07;;
48002;SDS011;33768;48.578;11.574;2023-06-22T03:54:47;11.13;;;6.30;;
48002;SDS011;33768;48.578;11.574;2023-06-22T03:57:51;8.73;;;5.87;;
48002;SDS011;33768;48.578;11.574;2023-06-22T04:00:56;9.83;;;6.23;;
48002;SDS011;33768;48.578;11.574;2023-06-22T04:04:00;9.57;;;5.50;;
48002;SDS011;33768;48.578;11.574;2023-06-22T04:07:05;8.17;;;5.33;;
48002;SDS011;33768;48.578;11.574;2023-06-22T04:10:09;8.90;;;5.80;;
48002;SDS011;33768;48.578;11.574;2023-06-22T04:13:13;9.10;;;5.40;;
48002;SDS011;33768;48.578;11.574;2023-06-22T04:16:17;7.70;;;5.30;;
48002;SDS011;33768;48.578;11.574;2023-06-22T04:19:22;8.83;;;4.83;;
48002;SDS011;33768;48.578;11.574;2023-06-22T04:22:25;7.90;;;4.93;;
48002;SDS011;33768;48.578;11.574;2023-06-22T04:25:30;9.63;;;5.27;;
48002;SDS011;33768;48.578;11.574;2023-06-22T04:28:34;8.63;;;6.37;;
48002;SDS011;33768;48.578;11.574;2023-06-22T04:31:41;12.33;;;6.03;;
48002;SDS011;33768;48.578;11.574;2023-06-22T04:34:45;8.50;;;6.73;;
48002;SDS011;33768;48.578;11.574;2023-06-22T04:37:49;11.73;;;6.63;;
48002;SDS011;33768;48.578;11.574;2023-06-22T04:40:54;10.97;;;8.17;;
48002;SDS011;33768;48.578;11.574;2023-06-22T04:43:58;10.63;;;7.17;;
48002;SDS011;33768;48.578;11.574;2023-06-22T04:47:03;11.43;;;7.87;;
48002;SDS011;33768;48.578;11.574;2023-06-22T04:50:11;10.27;;;6.83;;
48002;SDS011;33768;48.578;11.574;2023-06-22T04:53:15;9.87;;;7.00;;
48002;SDS011;33768;48.578;11.574;2023-06-22T04:56:20;12.30;;;6.87;;
48002;SDS011;33768;48.578;11.574;2023-06-22T04:59:26;13.13;;;8.13;;
48002;SDS011;33768;48.578;11.574;2023-06-22T05:02:32;10.33;;;7.40;;
48002;SDS011;33768;48.578;11.574;2023-06-22T05:05:36;10.10;;;7.47;;
48002;SDS011;33768;48.578;11.574;2023-06-22T05:08:40;11.47;;;8.20;;
48002;SDS011;33768;48.578;11.574;2023-06-22T05:11:44;9.47;;;7.33;;
48002;SDS011;33768;48.578;11.574;2023-06-22T05:14:48;12.97;;;8.77;;
48002;SDS011;33768;48.578;11.574;2023-06-22T05:17:52;12.03;;;7.37;;
48002;SDS011;33768;48.578;11.574;2023-06-22T05:20:57;11.07;;;7.60;;
48002;SDS011;33768;48.578;11.574;2023-06-22T05:24:02;16.53;;;7.80;;
48002;SDS011;33768;48.578;11.574;2023-06-22T05:27:07;8.83;;;7.03;;
48002;SDS011;33768;48.578;11.574;2023-06-22T05:30:11;9.30;;;6.77;;
48002;SDS011;33768;48.578;11.574;2023-06-22T05:33:15;11.40;;;6.67;;
48002;SDS011;33768;48.578;11.574;2023-06-22T05:36:20;9.40;;;6.70;;
48002;SDS011;33768;48.578;11.574;2023-06-22T05:39:25;8.20;;;6.80;;
48002;SDS011;33768;48.578;11.574;2023-06-22T05:42:29;10.83;;;7.57;;
48002;SDS011;33768;48.578;11.574;2023-06-22T05:45:34;13.40;;;7.67;;
48002;SDS011;33768;48.578;11.574;2023-06-22T05:48:38;14.07;;;8.00;;
48002;SDS011;33768;48.578;11.574;2023-06-22T05:51:42;12.77;;;7.07;;
48002;SDS011;33768;48.578;11.574;2023-06-22T05:54:47;8.83;;;5.93;;
48002;SDS011;33768;48.578;11.574;2023-06-22T05:57:51;11.03;;;6.13;;
48002;SDS011;33768;48.578;11.574;2023-06-22T06:00:55;7.83;;;5.67;;
48002;SDS011;33768;48.578;11.574;2023-06-22T06:03:59;10.40;;;5.47;;
48002;SDS011;33768;48.578;11.574;2023-06-22T06:07:03;12.23;;;5.60;;
48002;SDS011;33768;48.578;11.574;2023-06-22T06:10:08;7.90;;;5.40;;
48002;SDS011;33768;48.578;11.574;2023-06-22T06:13:13;9.73;;;5.43;;
48002;SDS011;33768;48.578;11.574;2023-06-22T06:16:17;12.13;;;5.37;;
48002;SDS011;33768;48.578;11.574;2023-06-22T06:19:21;6.90;;;4.97;;
48002;SDS011;33768;48.578;11.574;2023-06-22T06:22:25;9.33;;;4.80;;
48002;SDS011;33768;48.578;11.574;2023-06-22T06:25:29;8.00;;;4.33;;
48002;SDS011;33768;48.578;11.574;2023-06-22T06:28:34;13.20;;;4.20;;
48002;SDS011;33768;48.578;11.574;2023-06-22T06:31:38;7.07;;;4.33;;
48002;SDS011;33768;48.578;11.574;2023-06-22T06:34:42;10.20;;;4.07;;
48002;SDS011;33768;48.578;11.574;2023-06-22T06:37:47;13.20;;;4.07;;
48002;SDS011;33768;48.578;11.574;2023-06-22T06:40:53;6.37;;;3.73;;
48002;SDS011;33768;48.578;11.574;2023-06-22T06:43:57;6.73;;;3.00;;
48002;SDS011;33768;48.578;11.574;2023-06-22T06:47:01;7.33;;;3.20;;
48002;SDS011;33768;48.578;11.574;2023-06-22T06:50:05;8.47;;;3.33;;
48002;SDS011;33768;48.578;11.574;2023-06-22T06:53:10;9.63;;;3.07;;
48002;SDS011;33768;48.578;11.574;2023-06-22T06:56:14;8.93;;;3.47;;
48002;SDS011;33768;48.578;11.574;2023-06-22T06:59:19;8.47;;;3.17;;
48002;SDS011;33768;48.578;11.574;2023-06-22T07:02:23;8.20;;;2.80;;
48002;SDS011;33768;48.578;11.574;2023-06-22T07:05:27;5.80;;;2.73;;
48002;SDS011;33768;48.578;11.574;2023-06-22T07:08:31;6.10;;;3.13;;
48002;SDS011;33768;48.578;11.574;2023-06-22T07:11:36;5.80;;;2.93;;
48002;SDS011;33768;48.578;11.574;2023-06-22T07:14:40;7.87;;;3.30;;
48002;SDS011;33768;48.578;11.574;2023-06-22T07:17:44;3.90;;;2.57;;
48002;SDS011;33768;48.578;11.574;2023-06-22T07:20:48;6.57;;;2.90;;
48002;SDS011;33768;48.578;11.574;2023-06-22T07:23:52;7.03;;;3.00;;
48002;SDS011;33768;48.578;11.574;2023-06-22T07:26:58;7.80;;;3.20;;
48002;SDS011;33768;48.578;11.574;2023-06-22T07:30:03;8.68;;;3.15;;
48002;SDS011;33768;48.578;11.574;2023-06-22T07:33:08;6.65;;;2.97;;
48002;SDS011;33768;48.578;11.574;2023-06-22T07:36:12;7.72;;;2.88;;
48002;SDS011;33768;48.578;11.574;2023-06-22T07:39:16;7.97;;;3.35;;
48002;SDS011;33768;48.578;11.574;2023-06-22T07:42:20;6.95;;;2.92;;
48002;SDS011;33768;48.578;11.574;2023-06-22T07:45:24;8.80;;;3.25;;
48002;SDS011;33768;48.578;11.574;2023-06-22T07:48:28;8.52;;;2.88;;
48002;SDS011;33768;48.578;11.574;2023-06-22T07:51:32;6.40;;;2.95;;
48002;SDS011;33768;48.578;11.574;2023-06-22T07:54:36;10.52;;;3.30;;
48002;SDS011;33768;48.578;11.574;2023-06-22T07:57:41;4.97;;;2.80;;
48002;SDS011;33768;48.578;11.574;2023-06-22T08:00:46;6.43;;;3.28;;
48002;SDS011;33768;48.578;11.574;2023-06-22T08:03:51;9.57;;;3.25;;
48002;SDS011;33768;48.578;11.574;2023-06-22T08:06:55;7.93;;;2.90;;
48002;SDS011;33768;48.578;11.574;2023-06-22T08:09:59;5.75;;;3.00;;
48002;SDS011;33768;48.578;11.574;2023-06-22T08:13:03;7.20;;;3.13;;
48002;SDS011;33768;48.578;11.574;2023-06-22T08:16:07;6.03;;;3.35;;
48002;SDS011;33768;48.578;11.574;2023-06-22T08:19:11;6.20;;;3.17;;
48002;SDS011;33768;48.578;11.574;2023-06-22T08:22:15;6.15;;;3.25;;
48002;SDS011;33768;48.578;11.574;2023-06-22T08:25:20;9.55;;;3.30;;
48002;SDS011;33768;48.578;11.574;2023-06-22T08:28:24;8.27;;;3.60;;
48002;SDS011;33768;48.578;11.574;2023-06-22T08:31:28;7.68;;;3.35;;
48002;SDS011;33768;48.578;11.574;2023-06-22T08:34:32;10.15;;;3.75;;
48002;SDS011;33768;48.578;11.574;2023-06-22T08:37:38;10.07;;;3.55;;
48002;SDS011;33768;48.578;11.574;2023-06-22T08:40:42;6.13;;;3.50;;
48002;SDS011;33768;48.578;11.574;2023-06-22T08:43:47;6.82;;;3.60;;
48002;SDS011;33768;48.578;11.574;2023-06-22T08:46:51;9.57;;;3.80;;
48002;SDS011;33768;48.578;11.574;2023-06-22T08:49:55;5.80;;;3.38;;
48002;SDS011;33768;48.578;11.574;2023-06-22T08:53:00;10.63;;;3.38;;
48002;SDS011;33768;48.578;11.574;2023-06-22T08:56:04;7.82;;;3.22;;
48002;SDS011;33768;48.578;11.574;2023-06-22T08:59:08;10.63;;;3.67;;
48002;SDS011;33768;48.578;11.574;2023-06-22T09:02:12;8.43;;;3.58;;
48002;SDS011;33768;48.578;11.574;2023-06-22T09:05:16;13.13;;;3.67;;
48002;SDS011;33768;48.578;11.574;2023-06-22T09:08:20;8.32;;;3.53;;
48002;SDS011;33768;48.578;11.574;2023-06-22T09:11:25;8.95;;;3.22;;
48002;SDS011;33768;48.578;11.574;2023-06-22T09:14:29;12.15;;;3.92;;
48002;SDS011;33768;48.578;11.574;2023-06-22T09:17:33;6.00;;;3.53;;
48002;SDS011;33768;48.578;11.574;2023-06-22T09:20:38;11.60;;;3.83;;
48002;SDS011;33768;48.578;11.574;2023-06-22T09:23:42;6.78;;;3.60;;
48002;SDS011;33768;48.578;11.574;2023-06-22T09:26:46;9.02;;;3.67;;
48002;SDS011;33768;48.578;11.574;2023-06-22T09:29:51;6.95;;;3.47;;
48002;SDS011;33768;48.578;11.574;2023-06-22T09:32:55;11.88;;;4.47;;
48002;SDS011;33768;48.578;11.574;2023-06-22T09:35:59;9.05;;;3.85;;
48002;SDS011;33768;48.578;11.574;2023-06-22T09:39:03;7.30;;;3.67;;
48002;SDS011;33768;48.578;11.574;2023-06-22T09:42:10;10.43;;;3.53;;
48002;SDS011;33768;48.578;11.574;2023-06-22T09:45:14;18.00;;;3.88;;
48002;SDS011;33768;48.578;11.574;2023-06-22T09:48:18;8.95;;;3.40;;
48002;SDS011;33768;48.578;11.574;2023-06-22T09:51:23;7.60;;;3.42;;
48002;SDS011;33768;48.578;11.574;2023-06-22T09:54:27;10.30;;;3.75;;
48002;SDS011;33768;48.578;11.574;2023-06-22T09:57:31;10.50;;;3.95;;
48002;SDS011;33768;48.578;11.574;2023-06-22T10:00:35;6.72;;;3.47;;
48002;SDS011;33768;48.578;11.574;2023-06-22T10:03:39;8.57;;;3.10;;
48002;SDS011;33768;48.578;11.574;2023-06-22T10:06:45;6.70;;;3.30;;
48002;SDS011;33768;48.578;11.574;2023-06-22T10:09:49;13.60;;;3.55;;
48002;SDS011;33768;48.578;11.574;2023-06-22T10:12:56;7.70;;;3.90;;
48002;SDS011;33768;48.578;11.574;2023-06-22T10:16:01;9.13;;;3.88;;
48002;SDS011;33768;48.578;11.574;2023-06-22T10:19:05;8.52;;;3.58;;
48002;SDS011;33768;48.578;11.574;2023-06-22T10:22:10;9.20;;;3.78;;
48002;SDS011;33768;48.578;11.574;2023-06-22T10:25:14;11.73;;;3.92;;
48002;SDS011;33768;48.578;11.574;2023-06-22T10:28:18;10.43;;;4.30;;
48002;SDS011;33768;48.578;11.574;2023-06-22T10:31:22;9.38;;;4.00;;
48002;SDS011;33768;48.578;11.574;2023-06-22T10:34:26;9.73;;;4.13;;
48002;SDS011;33768;48.578;11.574;2023-06-22T10:37:30;10.20;;;3.42;;
48002;SDS011;33768;48.578;11.574;2023-06-22T10:40:35;13.10;;;3.88;;
48002;SDS011;33768;48.578;11.574;2023-06-22T10:47:03;10.85;;;3.72;;
48002;SDS011;33768;48.578;11.574;2023-06-22T10:50:07;8.45;;;3.47;;
48002;SDS011;33768;48.578;11.574;2023-06-22T10:53:12;17.27;;;4.20;;
48002;SDS011;33768;48.578;11.574;2023-06-22T10:56:17;13.07;;;4.03;;
48002;SDS011;33768;48.578;11.574;2023-06-22T10:59:21;8.13;;;4.00;;
48002;SDS011;33768;48.578;11.574;2023-06-22T11:02:27;10.05;;;3.97;;
48002;SDS011;33768;48.578;11.574;2023-06-22T11:05:32;10.98;;;4.10;;
48002;SDS011;33768;48.578;11.574;2023-06-22T11:08:36;14.43;;;3.90;;
48002;SDS011;33768;48.578;11.574;2023-06-22T11:11:41;19.65;;;4.55;;
48002;SDS011;33768;48.578;11.574;2023-06-22T11:14:45;15.45;;;4.60;;
48002;SDS011;33768;48.578;11.574;2023-06-22T11:17:49;10.85;;;4.43;;
48002;SDS011;33768;48.578;11.574;2023-06-22T11:20:53;11.98;;;5.47;;
48002;SDS011;33768;48.578;11.574;2023-06-22T11:23:57;9.23;;;3.85;;
48002;SDS011;33768;48.578;11.574;2023-06-22T11:27:02;11.25;;;3.83;;
48002;SDS011;33768;48.578;11.574;2023-06-22T11:30:07;10.93;;;4.03;;
48002;SDS011;33768;48.578;11.574;2023-06-22T11:33:11;17.92;;;4.53;;
48002;SDS011;33768;48.578;11.574;2023-06-22T11:36:15;16.40;;;3.95;;
48002;SDS011;33768;48.578;11.574;2023-06-22T11:39:19;9.27;;;3.60;;
48002;SDS011;33768;48.578;11.574;2023-06-22T11:42:24;10.23;;;3.95;;
48002;SDS011;33768;48.578;11.574;2023-06-22T11:45:28;12.48;;;4.18;;
48002;SDS011;33768;48.578;11.574;2023-06-22T11:48:32;6.97;;;3.83;;
48002;SDS011;33768;48.578;11.574;2023-06-22T11:51:36;9.00;;;4.07;;
48002;SDS011;33768;48.578;11.574;2023-06-22T11:54:40;10.48;;;4.15;;
48002;SDS011;33768;48.578;11.574;2023-06-22T11:57:53;7.00;;;4.05;;
48002;SDS011;33768;48.578;11.574;2023-06-22T12:00:58;9.27;;;4.47;;
48002;SDS011;33768;48.578;11.574;2023-06-22T12:04:02;9.63;;;4.15;;
48002;SDS011;33768;48.578;11.574;2023-06-22T12:07:09;11.32;;;4.60;;
48002;SDS011;33768;48.578;11.574;2023-06-22T12:10:14;10.00;;;4.05;;
48002;SDS011;33768;48.578;11.574;2023-06-22T12:13:18;13.57;;;4.35;;
48002;SDS011;33768;48.578;11.574;2023-06-22T12:16:22;11.13;;;4.25;;
48002;SDS011;33768;48.578;11.574;2023-06-22T12:19:28;12.48;;;4.25;;
48002;SDS011;33768;48.578;11.574;2023-06-22T12:22:32;14.10;;;4.07;;
48002;SDS011;33768;48.578;11.574;2023-06-22T12:25:36;10.38;;;4.32;;
48002;SDS011;33768;48.578;11.574;2023-06-22T12:28:41;8.27;;;4.22;;
48002;SDS011;33768;48.578;11.574;2023-06-22T12:31:45;13.43;;;4.38;;
48002;SDS011;33768;48.578;11.574;2023-06-22T12:34:49;12.32;;;4.30;;
48002;SDS011;33768;48.578;11.574;2023-06-22T12:37:53;13.90;;;4.60;;
48002;SDS011;33768;48.578;11.574;2023-06-22T12:40:57;14.50;;;4.22;;
48002;SDS011;33768;48.578;11.574;2023-06-22T12:44:02;13.80;;;3.65;;
48002;SDS011;33768;48.578;11.574;2023-06-22T12:47:06;10.32;;;4.13;;
48002;SDS011;33768;48.578;11.574;2023-06-22T12:50:12;10.13;;;4.32;;
48002;SDS011;33768;48.578;11.574;2023-06-22T12:53:16;13.68;;;4.35;;
48002;SDS011;33768;48.578;11.574;2023-06-22T12:56:20;13.32;;;4.55;;
48002;SDS011;33768;48.578;11.574;2023-06-22T12:59:24;14.07;;;4.22;;
48002;SDS011;33768;48.578;11.574;2023-06-22T13:02:28;11.40;;;4.22;;
48002;SDS011;33768;48.578;11.574;2023-06-22T13:05:32;13.00;;;4.00;;
48002;SDS011;33768;48.578;11.574;2023-06-22T13:08:38;18.50;;;4.57;;
48002;SDS011;33768;48.578;11.574;2023-06-22T13:11:43;14.23;;;3.70;;
48002;SDS011;33768;48.578;11.574;2023-06-22T13:14:47;13.95;;;4.63;;
48002;SDS011;33768;48.578;11.574;2023-06-22T13:17:51;13.98;;;4.30;;
48002;SDS011;33768;48.578;11.574;2023-06-22T13:20:55;13.32;;;4.40;;
48002;SDS011;33768;48.578;11.574;2023-06-22T13:24:00;9.00;;;4.05;;
48002;SDS011;33768;48.578;11.574;2023-06-22T13:27:04;12.18;;;4.13;;
48002;SDS011;33768;48.578;11.574;2023-06-22T13:30:09;12.00;;;4.80;;
48002;SDS011;33768;48.578;11.574;2023-06-22T13:33:13;11.88;;;4.47;;
48002;SDS011;33768;48.578;11.574;2023-06-22T13:36:18;11.77;;;4.57;;
48002;SDS011;33768;48.578;11.574;2023-06-22T13:39:22;11.88;;;4.80;;
48002;SDS011;33768;48.578;11.574;2023-06-22T13:42:26;12.85;;;4.60;;
48002;SDS011;33768;48.578;11.574;2023-06-22T13:45:31;11.27;;;4.35;;
48002;SDS011;33768;48.578;11.574;2023-06-22T13:48:35;13.73;;;4.32;;
48002;SDS011;33768;48.578;11.574;2023-06-22T13:51:39;11.50;;;3.88;;
48002;SDS011;33768;48.578;11.574;2023-06-22T13:54:43;14.55;;;4.25;;
48002;SDS011;33768;48.578;11.574;2023-06-22T13:57:47;19.40;;;4.65;;
48002;SDS011;33768;48.578;11.574;2023-06-22T14:00:51;13.45;;;4.22;;
48002;SDS011;33768;48.578;11.574;2023-06-22T14:03:55;20.75;;;4.63;;
48002;SDS011;33768;48.578;11.574;2023-06-22T14:06:59;14.02;;;4.47;;
48002;SDS011;33768;48.578;11.574;2023-06-22T14:10:03;13.80;;;4.65;;
48002;SDS011;33768;48.578;11.574;2023-06-22T14:13:08;19.98;;;5.00;;
48002;SDS011;33768;48.578;11.574;2023-06-22T14:16:12;19.38;;;4.70;;
48002;SDS011;33768;48.578;11.574;2023-06-22T14:19:17;10.23;;;3.90;;
48002;SDS011;33768;48.578;11.574;2023-06-22T14:22:22;11.10;;;3.85;;
48002;SDS011;33768;48.578;11.574;2023-06-22T14:25:26;16.05;;;3.95;;
48002;SDS011;33768;48.578;11.574;2023-06-22T14:28:30;14.70;;;4.40;;
48002;SDS011;33768;48.578;11.574;2023-06-22T14:31:34;12.25;;;5.00;;
48002;SDS011;33768;48.578;11.574;2023-06-22T14:34:38;15.25;;;4.45;;
48002;SDS011;33768;48.578;11.574;2023-06-22T14:37:43;15.98;;;4.65;;
48002;SDS011;33768;48.578;11.574;2023-06-22T14:40:47;14.57;;;4.57;;
48002;SDS011;33768;48.578;11.574;2023-06-22T14:43:51;15.15;;;5.00;;
48002;SDS011;33768;48.578;11.574;2023-06-22T14:46:55;17.90;;;4.82;;
48002;SDS011;33768;48.578;11.574;2023-06-22T14:50:00;13.00;;;4.35;;
48002;SDS011;33768;48.578;11.574;2023-06-22T14:53:04;14.07;;;3.92;;
48002;SDS011;33768;48.578;11.574;2023-06-22T14:56:08;12.80;;;4.50;;
48002;SDS011;33768;48.578;11.574;2023-06-22T14:59:12;13.70;;;4.75;;
48002;SDS011;33768;48.578;11.574;2023-06-22T15:02:16;17.80;;;4.75;;
48002;SDS011;33768;48.578;11.574;2023-06-22T15:05:20;10.43;;;4.43;;
48002;SDS011;33768;48.578;11.574;2023-06-22T15:08:24;13.48;;;4.95;;
48002;SDS011;33768;48.578;11.574;2023-06-22T15:11:30;12.80;;;4.57;;
48002;SDS011;33768;48.578;11.574;2023-06-22T15:14:34;15.93;;;5.00;;
48002;SDS011;33768;48.578;11.574;2023-06-22T15:17:38;12.55;;;4.15;;
48002;SDS011;33768;48.578;11.574;2023-06-22T15:20:42;19.15;;;5.00;;
48002;SDS011;33768;48.578;11.574;2023-06-22T15:23:48;18.42;;;5.60;;
48002;SDS011;33768;48.578;11.574;2023-06-22T15:26:52;17.30;;;4.60;;
48002;SDS011;33768;48.578;11.574;2023-06-22T15:29:56;15.32;;;4.68;;
48002;SDS011;33768;48.578;11.574;2023-06-22T15:33:00;15.65;;;4.72;;
48002;SDS011;33768;48.578;11.574;2023-06-22T15:36:05;14.52;;;5.13;;
48002;SDS011;33768;48.578;11.574;2023-06-22T15:39:11;12.80;;;4.85;;
48002;SDS011;33768;48.578;11.574;2023-06-22T15:42:15;10.98;;;4.65;;
48002;SDS011;33768;48.578;11.574;2023-06-22T15:45:19;12.45;;;4.55;;
48002;SDS011;33768;48.578;11.574;2023-06-22T15:48:23;11.82;;;4.65;;
48002;SDS011;33768;48.578;11.574;2023-06-22T15:51:27;16.65;;;4.95;;
48002;SDS011;33768;48.578;11.574;2023-06-22T15:54:32;11.80;;;4.38;;
48002;SDS011;33768;48.578;11.574;2023-06-22T15:57:36;9.43;;;4.22;;
48002;SDS011;33768;48.578;11.574;2023-06-22T16:00:41;14.20;;;4.85;;
48002;SDS011;33768;48.578;11.574;2023-06-22T16:03:45;9.50;;;4.65;;
48002;SDS011;33768;48.578;11.574;2023-06-22T16:06:49;17.17;;;5.13;;
48002;SDS011;33768;48.578;11.574;2023-06-22T16:09:53;15.05;;;4.65;;
48002;SDS011;33768;48.578;11.574;2023-06-22T16:12:57;12.05;;;5.00;;
48002;SDS011;33768;48.578;11.574;2023-06-22T16:16:02;12.20;;;4.95;;
48002;SDS011;33768;48.578;11.574;2023-06-22T16:19:06;13.65;;;4.68;;
48002;SDS011;33768;48.578;11.574;2023-06-22T16:22:10;14.52;;;4.75;;
48002;SDS011;33768;48.578;11.574;2023-06-22T16:25:14;14.40;;;5.00;;
48002;SDS011;33768;48.578;11.574;2023-06-22T16:28:18;12.00;;;5.00;;
48002;SDS011;33768;48.578;11.574;2023-06-22T16:31:22;13.25;;;4.70;;
48002;SDS011;33768;48.578;11.574;2023-06-22T16:34:26;17.35;;;4.82;;
48002;SDS011;33768;48.578;11.574;2023-06-22T16:37:30;14.20;;;4.68;;
48002;SDS011;33768;48.578;11.574;2023-06-22T16:40:34;12.82;;;4.57;;
48002;SDS011;33768;48.578;11.574;2023-06-22T16:43:39;12.43;;;4.28;;
48002;SDS011;33768;48.578;11.574;2023-06-22T16:46:43;15.30;;;5.00;;
48002;SDS011;33768;48.578;11.574;2023-06-22T16:49:47;10.27;;;4.43;;
48002;SDS011;33768;48.578;11.574;2023-06-22T16:52:53;16.60;;;4.72;;
48002;SDS011;33768;48.578;11.574;2023-06-22T16:55:58;15.55;;;5.63;;
48002;SDS011;33768;48.578;11.574;2023-06-22T16:59:02;15.57;;;4.57;;
48002;SDS011;33768;48.578;11.574;2023-06-22T17:02:06;10.13;;;4.20;;
48002;SDS011;33768;48.578;11.574;2023-06-22T17:05:20;11.20;;;4.93;;
48002;SDS011;33768;48.578;11.574;2023-06-22T17:08:28;13.02;;;5.00;;
48002;SDS011;33768;48.578;11.574;2023-06-22T17:11:36;9.98;;;4.43;;
48002;SDS011;33768;48.578;11.574;2023-06-22T17:14:41;15.48;;;5.18;;
48002;SDS011;33768;48.578;11.574;2023-06-22T17:17:49;16.25;;;4.82;;
48002;SDS011;33768;48.578;11.574;2023-06-22T17:20:54;11.00;;;4.45;;
48002;SDS011;33768;48.578;11.574;2023-06-22T17:24:00;15.15;;;4.82;;
48002;SDS011;33768;48.578;11.574;2023-06-22T17:27:05;11.68;;;4.70;;
48002;SDS011;33768;48.578;11.574;2023-06-22T17:30:09;12.57;;;4.20;;
48002;SDS011;33768;48.578;11.574;2023-06-22T17:33:16;13.02;;;5.07;;
48002;SDS011;33768;48.578;11.574;2023-06-22T17:36:22;10.18;;;4.50;;
48002;SDS011;33768;48.578;11.574;2023-06-22T17:39:27;12.43;;;4.55;;
48002;SDS011;33768;48.578;11.574;2023-06-22T17:42:35;14.38;;;4.88;;
48002;SDS011;33768;48.578;11.574;2023-06-22T17:45:40;14.70;;;5.05;;
48002;SDS011;33768;48.578;11.574;2023-06-22T17:48:48;14.85;;;5.50;;
48002;SDS011;33768;48.578;11.574;2023-06-22T17:51:53;15.02;;;5.22;;
48002;SDS011;33768;48.578;11.574;2023-06-22T17:54:57;15.80;;;5.28;;
48002;SDS011;33768;48.578;11.574;2023-06-22T17:58:06;17.65;;;5.47;;
48002;SDS011;33768;48.578;11.574;2023-06-22T18:01:10;14.88;;;5.70;;
48002;SDS011;33768;48.578;11.574;2023-06-22T18:04:18;15.35;;;5.50;;
48002;SDS011;33768;48.578;11.574;2023-06-22T18:07:23;20.13;;;5.93;;
48002;SDS011;33768;48.578;11.574;2023-06-22T18:10:31;15.73;;;5.68;;
48002;SDS011;33768;48.578;11.574;2023-06-22T18:13:37;22.65;;;6.72;;
48002;SDS011;33768;48.578;11.574;2023-06-22T18:16:43;35.78;;;8.85;;
48002;SDS011;33768;48.578;11.574;2023-06-22T18:19:48;29.88;;;7.93;;
48002;SDS011;33768;48.578;11.574;2023-06-22T18:22:54;22.33;;;7.88;;
48002;SDS011;33768;48.578;11.574;2023-06-22T18:25:59;23.73;;;7.35;;